createdAt,value
2023-04-15T00:00:13.240Z,93920.44
2023-04-15T00:03:22.134Z,93919.09
2023-04-15T00:06:31.896Z,93907.72
2023-04-15T00:09:42.798Z,93908.53
2023-04-15T00:12:50.984Z,93914.94
2023-04-15T00:15:59.273Z,93904.22
2023-04-15T00:19:07.454Z,93897.28
2023-04-15T00:22:17.469Z,93902.25
2023-04-15T00:25:25.816Z,93900.88
2023-04-15T00:28:34.036Z,93891.41
2023-04-15T00:31:42.746Z,93886.06
2023-04-15T00:34:52.473Z,93884.94
2023-04-15T00:38:02.262Z,93869.50
2023-04-15T00:41:12.320Z,93870.69
2023-04-15T00:44:21.161Z,93867.72
2023-04-15T00:47:32.368Z,93874.09
2023-04-15T00:50:40.574Z,93878.88
2023-04-15T00:53:51.886Z,93881.03
2023-04-15T00:57:00.823Z,93873.59
2023-04-15T01:00:11.622Z,93869.81
2023-04-15T01:03:20.799Z,93877.72
2023-04-15T01:06:29.246Z,93879.13
2023-04-15T01:09:39.167Z,93881.44
2023-04-15T01:12:47.542Z,93881.22
2023-04-15T01:15:58.385Z,93872.28
2023-04-15T01:19:07.567Z,93877.84
2023-04-15T01:22:16.202Z,93880.91
2023-04-15T01:25:33.267Z,93868.59
2023-04-15T01:28:41.631Z,93875.28
2023-04-15T01:31:57.602Z,93875.41
2023-04-15T01:35:08.893Z,93879.28
2023-04-15T01:38:17.229Z,93878.69
2023-04-15T01:41:29.319Z,93885.06
2023-04-15T01:44:37.441Z,93883.81
2023-04-15T01:47:45.701Z,93884.94
2023-04-15T01:50:55.263Z,93882.53
2023-04-15T01:54:04.747Z,93883.81
2023-04-15T01:57:14.476Z,93888.44
2023-04-15T02:00:23.372Z,93883.41
2023-04-15T02:03:33.956Z,93883.09
2023-04-15T02:06:42.225Z,93883.41
2023-04-15T02:09:50.402Z,93888.19
2023-04-15T02:12:59.980Z,93881.50
2023-04-15T02:16:18.797Z,93871.25
2023-04-15T02:19:27.096Z,93872.50
2023-04-15T02:22:35.819Z,93872.88
2023-04-15T02:25:53.949Z,93876.38
2023-04-15T02:29:04.082Z,93880.28
2023-04-15T02:32:13.149Z,93878.59
2023-04-15T02:35:21.623Z,93875.28
2023-04-15T02:38:31.003Z,93880.91
2023-04-15T02:41:39.344Z,93878.47
2023-04-15T02:44:48.928Z,93877.81
2023-04-15T02:47:57.545Z,93875.16
2023-04-15T02:51:15.510Z,93874.41
2023-04-15T02:54:24.975Z,93871.97
2023-04-15T02:57:33.373Z,93868.81
2023-04-15T03:00:50.901Z,93862.59
2023-04-15T03:03:59.148Z,93870.00
2023-04-15T03:07:07.284Z,93876.03
2023-04-15T03:10:15.566Z,93871.78
2023-04-15T03:13:24.571Z,93875.63
2023-04-15T03:16:34.089Z,93864.09
2023-04-15T03:19:42.295Z,93873.59
2023-04-15T03:22:50.933Z,93872.00
2023-04-15T03:26:04.065Z,93876.19
2023-04-15T03:29:14.036Z,93879.81
2023-04-15T03:32:23.704Z,93887.44
2023-04-15T03:35:31.843Z,93882.72
2023-04-15T03:38:40.008Z,93889.69
2023-04-15T03:41:48.214Z,93884.00
2023-04-15T03:44:57.920Z,93881.09
2023-04-15T03:48:17.341Z,93882.69
2023-04-15T03:51:26.661Z,93888.31
2023-04-15T03:54:34.848Z,93881.31
2023-04-15T03:57:43.086Z,93879.75
2023-04-15T04:00:51.290Z,93887.19
2023-04-15T04:04:01.079Z,93880.66
2023-04-15T04:07:09.350Z,93888.31
2023-04-15T04:10:17.882Z,93894.00
2023-04-15T04:13:26.062Z,93893.16
2023-04-15T04:16:34.211Z,93900.88
2023-04-15T04:19:43.707Z,93899.41
2023-04-15T04:22:51.953Z,93895.09
2023-04-15T04:26:00.093Z,93895.50
2023-04-15T04:29:08.226Z,93891.63
2023-04-15T04:32:16.452Z,93894.94
2023-04-15T04:35:26.467Z,93899.72
2023-04-15T04:38:34.628Z,93898.13
2023-04-15T04:41:42.662Z,93897.72
2023-04-15T04:44:50.724Z,93900.19
2023-04-15T04:47:58.811Z,93894.09
2023-04-15T04:51:09.421Z,93901.38
2023-04-15T04:54:17.629Z,93903.38
2023-04-15T04:57:25.917Z,93899.91
2023-04-15T05:00:34.110Z,93903.22
2023-04-15T05:03:42.890Z,93895.59
2023-04-15T05:06:52.488Z,93891.22
2023-04-15T05:10:00.606Z,93893.81
2023-04-15T05:13:08.749Z,93896.44
2023-04-15T05:16:17.010Z,93896.91
2023-04-15T05:19:25.451Z,93901.09
2023-04-15T05:22:35.601Z,93897.97
2023-04-15T05:25:43.681Z,93899.41
2023-04-15T05:28:51.913Z,93897.63
2023-04-15T05:32:00.199Z,93901.56
2023-04-15T05:35:09.047Z,93897.31
2023-04-15T05:38:18.553Z,93896.31
2023-04-15T05:41:26.666Z,93899.34
2023-04-15T05:44:34.852Z,93905.03
2023-04-15T05:47:43.164Z,93904.25
2023-04-15T05:50:51.411Z,93899.03
2023-04-15T05:54:01.307Z,93909.09
2023-04-15T05:57:09.440Z,93902.50
2023-04-15T06:00:18.030Z,93903.38
2023-04-15T06:03:26.438Z,93907.28
2023-04-15T06:06:34.743Z,93910.28
2023-04-15T06:09:44.828Z,93897.72
2023-04-15T06:12:54.574Z,93906.94
2023-04-15T06:16:02.886Z,93911.28
2023-04-15T06:19:12.400Z,93908.00
2023-04-15T06:22:20.757Z,93906.66
2023-04-15T06:25:30.200Z,93906.22
2023-04-15T06:28:38.262Z,93908.94
2023-04-15T06:31:48.529Z,93902.72
2023-04-15T06:34:56.763Z,93898.84
2023-04-15T06:38:04.860Z,93901.66
2023-04-15T06:41:14.430Z,93904.19
2023-04-15T06:44:22.527Z,93904.44
2023-04-15T06:47:30.819Z,93908.75
2023-04-15T06:50:39.072Z,93907.16
2023-04-15T06:53:47.136Z,93919.38
2023-04-15T06:56:56.817Z,93921.44
2023-04-15T07:00:07.501Z,93908.00
2023-04-15T07:03:16.066Z,93910.41
2023-04-15T07:06:24.742Z,93912.00
2023-04-15T07:09:34.212Z,93903.78
2023-04-15T07:12:43.624Z,93904.53
2023-04-15T07:15:51.658Z,93909.06
2023-04-15T07:19:00.005Z,93912.66
2023-04-15T07:22:08.421Z,93921.22
2023-04-15T07:25:17.706Z,93924.06
2023-04-15T07:28:29.140Z,93924.72
2023-04-15T07:31:37.772Z,93928.06
2023-04-15T07:34:46.390Z,93922.63
2023-04-15T07:37:54.582Z,93926.69
2023-04-15T07:41:02.724Z,93917.31
2023-04-15T07:44:12.883Z,93926.84
2023-04-15T07:47:21.054Z,93930.22
2023-04-15T07:50:29.861Z,93929.28
2023-04-15T07:53:38.116Z,93930.63
2023-04-15T07:56:46.212Z,93934.66
2023-04-15T07:59:56.265Z,93925.31
2023-04-15T08:03:04.938Z,93923.44
2023-04-15T08:06:13.216Z,93914.47
2023-04-15T08:09:21.664Z,93920.81
2023-04-15T08:12:31.781Z,93916.84
2023-04-15T08:15:41.245Z,93916.78
2023-04-15T08:18:51.448Z,93916.75
2023-04-15T08:22:00.569Z,93917.47
2023-04-15T08:25:10.286Z,93917.41
2023-04-15T08:28:18.349Z,93915.34
2023-04-15T08:31:30.953Z,93911.78
2023-04-15T08:34:39.472Z,93918.81
2023-04-15T08:37:47.640Z,93914.38
2023-04-15T08:40:59.292Z,93922.28
2023-04-15T08:44:08.538Z,93909.75
2023-04-15T08:47:22.787Z,93923.41
2023-04-15T08:50:33.833Z,93915.41
2023-04-15T08:53:42.068Z,93928.88
2023-04-15T08:56:50.989Z,93922.91
2023-04-15T08:59:59.645Z,93931.66
2023-04-15T09:03:11.180Z,93927.06
2023-04-15T09:06:19.993Z,93934.38
2023-04-15T09:09:29.142Z,93932.88
2023-04-15T09:12:38.357Z,93940.88
2023-04-15T09:15:47.189Z,93938.97
2023-04-15T09:18:56.820Z,93938.38
2023-04-15T09:22:05.389Z,93937.34
2023-04-15T09:25:33.518Z,93934.75
2023-04-15T09:28:44.218Z,93933.66
2023-04-15T09:31:52.665Z,93937.00
2023-04-15T09:35:13.496Z,93941.31
2023-04-15T09:38:21.627Z,93948.72
2023-04-15T09:41:29.863Z,93951.44
2023-04-15T09:44:40.086Z,93950.78
2023-04-15T09:47:48.216Z,93943.56
2023-04-15T09:51:02.998Z,93947.47
2023-04-15T09:54:11.556Z,93953.16
2023-04-15T09:57:19.761Z,93953.06
2023-04-15T10:00:28.047Z,93958.31
2023-04-15T10:03:37.581Z,93949.75
2023-04-15T10:06:47.402Z,93956.31
2023-04-15T10:09:56.796Z,93956.09
2023-04-15T10:13:07.600Z,93956.63
2023-04-15T10:16:18.003Z,93955.13
2023-04-15T10:19:34.257Z,93956.03
2023-04-15T10:22:48.700Z,93956.28
2023-04-15T10:25:58.853Z,93952.41
2023-04-15T10:29:08.103Z,93958.75
2023-04-15T10:32:17.585Z,93961.66
2023-04-15T10:35:26.961Z,93963.91
2023-04-15T10:38:41.803Z,93960.84
2023-04-15T10:42:08.692Z,93974.78
2023-04-15T10:45:19.954Z,93972.69
2023-04-15T10:48:28.180Z,93974.16
2023-04-15T10:51:42.959Z,93970.19
2023-04-15T10:55:05.394Z,93970.97
2023-04-15T10:58:15.079Z,93976.03
2023-04-15T11:01:24.238Z,93975.06
2023-04-15T11:05:01.816Z,93976.47
2023-04-15T11:08:11.041Z,93977.53
2023-04-15T11:11:22.147Z,93975.53
2023-04-15T11:14:30.298Z,93974.16
2023-04-15T11:17:38.727Z,93974.13
2023-04-15T11:20:50.540Z,93968.91
2023-04-15T11:23:58.897Z,93980.72
2023-04-15T11:27:08.410Z,93973.28
2023-04-15T11:30:22.664Z,93983.72
2023-04-15T11:33:31.105Z,93982.00
2023-04-15T11:36:40.215Z,93978.53
2023-04-15T11:39:50.433Z,93986.22
2023-04-15T11:43:11.961Z,93977.44
2023-04-15T11:46:22.997Z,93980.47
2023-04-15T11:49:34.041Z,93989.91
2023-04-15T11:52:55.348Z,93988.75
2023-04-15T11:56:03.843Z,93989.63
2023-04-15T11:59:13.815Z,93997.47
2023-04-15T12:02:31.919Z,93998.19
2023-04-15T12:06:10.485Z,94002.94
2023-04-15T12:09:20.288Z,94007.84
2023-04-15T12:12:31.076Z,94008.78
2023-04-15T12:15:41.937Z,94009.09
2023-04-15T12:18:53.750Z,94018.16
2023-04-15T12:22:05.479Z,94018.19
2023-04-15T12:25:15.068Z,94023.69
2023-04-15T12:28:23.528Z,94030.38
2023-04-15T12:31:33.375Z,94036.88
2023-04-15T12:34:46.169Z,94033.16
2023-04-15T12:37:54.389Z,94042.00
2023-04-15T12:41:02.781Z,94044.25
2023-04-15T12:44:12.318Z,94047.88
2023-04-15T12:47:22.187Z,94046.84
2023-04-15T12:50:30.752Z,94050.53
2023-04-15T12:53:39.186Z,94058.44
2023-04-15T12:56:49.066Z,94057.19
2023-04-15T12:59:57.478Z,94062.84
2023-04-15T13:03:07.486Z,94059.94
2023-04-15T13:06:16.051Z,94061.84
2023-04-15T13:09:24.359Z,94057.88
2023-04-15T13:12:33.016Z,94063.22
2023-04-15T13:15:41.260Z,94060.50
2023-04-15T13:18:51.361Z,94072.09
2023-04-15T13:21:59.856Z,94065.28
2023-04-15T13:25:09.728Z,94077.34
2023-04-15T13:28:18.187Z,94075.50
2023-04-15T13:31:27.266Z,94079.03
2023-04-15T13:34:37.116Z,94084.59
2023-04-15T13:37:45.331Z,94087.16
2023-04-15T13:40:53.634Z,94090.13
2023-04-15T13:44:02.291Z,94096.50
2023-04-15T13:47:11.068Z,94102.41
2023-04-15T13:50:21.034Z,94102.91
2023-04-15T13:53:37.840Z,94106.56
2023-04-15T13:56:47.666Z,94109.81
2023-04-15T13:59:55.967Z,94107.13
2023-04-15T14:03:04.347Z,94114.91
2023-04-15T14:06:13.916Z,94114.91
2023-04-15T14:09:26.218Z,94120.00
2023-04-15T14:12:35.018Z,94123.69
2023-04-15T14:15:43.404Z,94124.09
2023-04-15T14:18:51.746Z,94126.13
2023-04-15T14:22:01.857Z,94131.63
2023-04-15T14:25:17.278Z,94146.31
2023-04-15T14:28:32.189Z,94153.06
2023-04-15T14:31:41.208Z,94156.13
2023-04-15T14:34:51.102Z,94159.97
2023-04-15T14:38:00.627Z,94167.34
2023-04-15T14:41:10.506Z,94166.28
2023-04-15T14:44:19.634Z,94171.19
2023-04-15T14:47:27.947Z,94180.78
2023-04-15T14:50:36.388Z,94184.66
2023-04-15T14:53:46.372Z,94181.81
2023-04-15T14:56:54.780Z,94185.06
2023-04-15T15:00:03.641Z,94196.50
2023-04-15T15:03:15.815Z,94185.91
2023-04-15T15:06:25.148Z,94189.56
2023-04-15T15:09:35.133Z,94193.63
2023-04-15T15:12:43.477Z,94199.13
2023-04-15T15:15:52.042Z,94199.16
2023-04-15T15:19:00.502Z,94210.16
2023-04-15T15:22:08.846Z,94218.88
2023-04-15T15:25:19.304Z,94225.03
2023-04-15T15:28:28.369Z,94215.44
2023-04-15T15:31:37.176Z,94235.00
2023-04-15T15:34:49.153Z,94232.56
2023-04-15T15:37:57.721Z,94235.78
2023-04-15T15:41:07.444Z,94247.19
2023-04-15T15:44:16.100Z,94249.38
2023-04-15T15:47:26.550Z,94255.03
2023-04-15T15:50:35.634Z,94257.38
2023-04-15T15:53:44.867Z,94259.31
2023-04-15T15:56:54.660Z,94271.47
2023-04-15T16:03:14.626Z,94287.00
2023-04-15T16:06:22.823Z,94286.72
2023-04-15T16:09:31.373Z,94296.41
2023-04-15T16:12:41.873Z,94297.78
2023-04-15T16:15:51.130Z,94302.19
2023-04-15T16:18:59.496Z,94304.34
2023-04-15T16:22:07.664Z,94310.91
2023-04-15T16:25:16.380Z,94323.16
2023-04-15T16:28:27.323Z,94319.09
2023-04-15T16:31:37.348Z,94319.66
2023-04-15T16:34:45.529Z,94325.94
2023-04-15T16:37:53.817Z,94325.00
2023-04-15T16:41:03.289Z,94323.72
2023-04-15T16:44:12.795Z,94323.94
2023-04-15T16:47:20.953Z,94330.63
2023-04-15T16:50:29.287Z,94332.03
2023-04-15T16:53:37.389Z,94335.84
2023-04-15T16:56:45.446Z,94341.16
2023-04-15T16:59:54.995Z,94346.66
2023-04-15T17:03:04.080Z,94349.47
2023-04-15T17:06:12.349Z,94357.16
2023-04-15T17:09:20.453Z,94357.50
2023-04-15T17:12:28.838Z,94365.63
2023-04-15T17:15:38.361Z,94366.03
2023-04-15T17:18:47.370Z,94367.19
2023-04-15T17:21:55.492Z,94381.78
2023-04-15T17:25:04.613Z,94389.91
2023-04-15T17:28:13.025Z,94392.25
2023-04-15T17:31:22.686Z,94402.59
2023-04-15T17:34:50.681Z,94408.56
2023-04-15T17:37:59.468Z,94409.63
2023-04-15T17:41:08.424Z,94416.56
2023-04-15T17:44:16.655Z,94412.28
2023-04-15T17:47:26.709Z,94418.94
2023-04-15T17:50:35.636Z,94425.84
2023-04-15T17:53:43.706Z,94423.66
2023-04-15T17:56:52.508Z,94430.88
2023-04-15T18:00:00.792Z,94433.03
2023-04-15T18:03:11.694Z,94436.41
2023-04-15T18:06:21.554Z,94443.06
2023-04-15T18:09:29.751Z,94451.00
2023-04-15T18:12:38.286Z,94450.53
2023-04-15T18:15:47.597Z,94454.25
2023-04-15T18:18:57.425Z,94457.47
2023-04-15T18:22:05.564Z,94468.66
2023-04-15T18:25:13.923Z,94466.03
2023-04-15T18:28:23.004Z,94478.94
2023-04-15T18:31:31.756Z,94476.13
2023-04-15T18:34:42.800Z,94481.75
2023-04-15T18:37:51.159Z,94491.06
2023-04-15T18:40:59.945Z,94492.06
2023-04-15T18:44:08.148Z,94489.78
2023-04-15T18:47:17.083Z,94495.44
2023-04-15T18:50:26.943Z,94496.25
2023-04-15T18:53:35.766Z,94498.91
2023-04-15T18:56:44.085Z,94517.56
2023-04-15T18:59:52.848Z,94515.56
2023-04-15T19:03:01.260Z,94520.66
2023-04-15T19:06:11.363Z,94524.56
2023-04-15T19:09:19.538Z,94530.59
2023-04-15T19:12:28.097Z,94535.06
2023-04-15T19:15:36.213Z,94540.16
2023-04-15T19:18:44.435Z,94540.50
2023-04-15T19:21:54.485Z,94538.19
2023-04-15T19:25:02.746Z,94547.97
2023-04-15T19:28:11.382Z,94547.34
2023-04-15T19:31:20.202Z,94544.50
2023-04-15T19:34:28.378Z,94547.59
2023-04-15T19:37:38.945Z,94546.59
2023-04-15T19:40:47.139Z,94549.13
2023-04-15T19:43:55.644Z,94555.41
2023-04-15T19:47:04.022Z,94560.75
2023-04-15T19:50:12.931Z,94560.38
2023-04-15T19:53:22.396Z,94565.16
2023-04-15T19:56:31.744Z,94558.72
2023-04-15T19:59:42.229Z,94567.69
2023-04-15T20:02:50.697Z,94573.56
2023-04-15T20:05:58.984Z,94577.41
2023-04-15T20:09:11.087Z,94573.50
2023-04-15T20:12:50.412Z,94575.66
2023-04-15T20:15:49.957Z,94577.28
2023-04-15T20:18:59.531Z,94572.97
2023-04-15T20:22:08.083Z,94584.13
2023-04-15T20:25:17.568Z,94586.44
2023-04-15T20:28:27.495Z,94584.84
2023-04-15T20:31:36.209Z,94587.00
2023-04-15T20:34:44.850Z,94590.72
2023-04-15T20:37:53.225Z,94596.66
2023-04-15T20:41:02.872Z,94595.50
2023-04-15T20:44:11.007Z,94597.06
2023-04-15T20:47:19.793Z,94597.91
2023-04-15T20:50:28.849Z,94602.63
2023-04-15T20:53:37.007Z,94602.97
2023-04-15T20:56:46.902Z,94611.53
2023-04-15T20:59:55.064Z,94614.47
2023-04-15T21:03:03.764Z,94619.66
2023-04-15T21:06:12.510Z,94628.31
2023-04-15T21:09:20.958Z,94624.72
2023-04-15T21:12:30.476Z,94622.84
2023-04-15T21:15:38.762Z,94631.97
2023-04-15T21:18:47.102Z,94631.03
2023-04-15T21:21:55.223Z,94639.22
2023-04-15T21:25:03.684Z,94638.75
2023-04-15T21:28:13.385Z,94642.16
2023-04-15T21:31:22.355Z,94649.34
2023-04-15T21:34:30.630Z,94650.19
2023-04-15T21:37:38.921Z,94661.69
2023-04-15T21:40:47.743Z,94653.13
2023-04-15T21:43:58.023Z,94655.41
2023-04-15T21:47:06.148Z,94659.91
2023-04-15T21:50:15.595Z,94665.03
2023-04-15T21:53:24.331Z,94668.19
2023-04-15T21:56:33.842Z,94663.75
2023-04-15T21:59:43.562Z,94672.06
2023-04-15T22:02:52.146Z,94674.41
2023-04-15T22:06:00.477Z,94674.25
2023-04-15T22:09:08.583Z,94675.25
2023-04-15T22:12:16.778Z,94679.91
2023-04-15T22:15:26.265Z,94690.47
2023-04-15T22:18:34.318Z,94688.50
2023-04-15T22:21:42.935Z,94689.31
2023-04-15T22:24:50.991Z,94697.41
2023-04-15T22:27:59.054Z,94690.44
2023-04-15T22:31:09.275Z,94694.81
2023-04-15T22:34:21.215Z,94703.00
2023-04-15T22:37:30.490Z,94701.38
2023-04-15T22:40:38.845Z,94706.53
2023-04-15T22:43:47.588Z,94712.63
2023-04-15T22:46:57.488Z,94713.59
2023-04-15T22:50:08.073Z,94721.59
2023-04-15T22:53:18.234Z,94723.88
2023-04-15T22:56:26.836Z,94723.91
2023-04-15T22:59:35.343Z,94725.88
2023-04-15T23:02:45.711Z,94722.22
2023-04-15T23:05:53.940Z,94731.50
2023-04-15T23:09:02.056Z,94734.81
2023-04-15T23:12:10.405Z,94739.91
2023-04-15T23:15:18.468Z,94738.94
2023-04-15T23:18:28.417Z,94733.97
2023-04-15T23:21:36.530Z,94743.41
2023-04-15T23:24:44.582Z,94735.44
2023-04-15T23:27:52.828Z,94731.19
2023-04-15T23:31:01.159Z,94742.72
2023-04-15T23:34:10.867Z,94745.03
2023-04-15T23:37:19.740Z,94741.13
2023-04-15T23:40:27.956Z,94746.06
2023-04-15T23:43:36.677Z,94742.44
2023-04-15T23:46:44.816Z,94756.13
2023-04-15T23:49:54.377Z,94748.53
2023-04-15T23:53:02.501Z,94742.94
2023-04-15T23:56:11.114Z,94742.44
2023-04-15T23:59:19.477Z,94739.56
